createdAt,value
2019-03-29T15:02:43.271Z,15.30
2019-03-29T15:05:13.355Z,15.20
2019-03-29T15:07:44.193Z,15.20
2019-03-29T15:10:26.818Z,15.30
2019-03-29T15:12:57.959Z,15.40
2019-03-29T15:15:28.890Z,15.40
2019-03-29T15:18:00.227Z,15.30
2019-03-29T15:20:31.138Z,15.30
2019-03-29T15:23:01.850Z,15.20
2019-03-29T15:25:33.266Z,15.20
2019-03-29T15:28:04.521Z,15.20
2019-03-29T15:30:35.117Z,15.20
2019-03-29T15:33:05.672Z,15.10
2019-03-29T15:35:36.783Z,15.00
2019-03-29T15:38:08.013Z,15.10
2019-03-29T15:40:38.689Z,15.10
2019-03-29T15:43:10.247Z,15.00
2019-03-29T15:45:40.957Z,15.00
2019-03-29T15:48:11.955Z,15.00
2019-03-29T15:50:43.372Z,15.00
2019-03-29T15:53:14.418Z,15.00
2019-03-29T15:55:45.439Z,14.90
2019-03-29T15:58:16.491Z,14.90
2019-03-29T16:00:46.752Z,14.90
2019-03-29T16:03:17.030Z,14.80
2019-03-29T16:05:48.567Z,14.80
2019-03-29T16:08:19.336Z,14.80
2019-03-29T16:10:49.948Z,14.70
2019-03-29T16:13:21.298Z,14.70
2019-03-29T16:15:52.342Z,14.60
2019-03-29T16:18:22.834Z,14.50
2019-03-29T16:20:52.759Z,14.50
2019-03-29T16:23:23.724Z,14.40
2019-03-29T16:25:54.869Z,14.40
2019-03-29T16:28:25.771Z,14.40
2019-03-29T16:30:56.338Z,14.40
2019-03-29T16:33:27.605Z,14.30
2019-03-29T16:35:58.237Z,14.20
2019-03-29T16:38:29.076Z,14.20
2019-03-29T16:40:59.679Z,14.20
2019-03-29T16:43:31.570Z,14.20
2019-03-29T16:46:02.600Z,14.10
2019-03-29T16:48:33.120Z,14.00
2019-03-29T16:51:03.730Z,13.90
2019-03-29T16:53:34.048Z,13.80
2019-03-29T16:56:04.656Z,13.60
2019-03-29T16:58:36.148Z,13.50
2019-03-29T17:01:08.263Z,13.40
2019-03-29T17:03:39.527Z,13.30
2019-03-29T17:06:10.210Z,13.20
2019-03-29T17:08:40.805Z,13.10
2019-03-29T17:11:11.940Z,13.00
2019-03-29T17:13:43.309Z,12.80
2019-03-29T17:16:14.544Z,12.70
2019-03-29T17:18:45.752Z,12.60
2019-03-29T17:21:16.748Z,12.50
2019-03-29T17:23:47.373Z,12.40
2019-03-29T17:26:17.312Z,12.40
2019-03-29T17:28:48.298Z,12.20
2019-03-29T17:31:19.213Z,12.10
2019-03-29T17:33:49.434Z,12.00
2019-03-29T17:36:20.731Z,11.80
2019-03-29T17:38:51.018Z,11.60
2019-03-29T17:41:22.969Z,11.60
2019-03-29T17:43:53.239Z,11.50
2019-03-29T17:46:24.562Z,11.30
2019-03-29T17:48:55.619Z,11.20
2019-03-29T17:51:26.280Z,11.10
2019-03-29T17:53:57.297Z,10.90
2019-03-29T17:56:28.352Z,10.80
2019-03-29T17:58:59.091Z,10.60
2019-03-29T18:01:29.701Z,10.60
2019-03-29T18:04:00.440Z,10.60
2019-03-29T18:06:31.075Z,10.50
2019-03-29T18:09:01.659Z,10.40
2019-03-29T18:11:32.637Z,10.20
2019-03-29T18:14:02.778Z,10.20
2019-03-29T18:16:33.493Z,10.10
2019-03-29T18:19:06.906Z,10.10
2019-03-29T18:21:38.340Z,10.10
2019-03-29T18:24:08.208Z,10.00
2019-03-29T18:26:39.615Z,10.00
2019-03-29T18:29:10.656Z,9.80
2019-03-29T18:31:42.080Z,9.80
2019-03-29T18:34:13.041Z,9.70
2019-03-29T18:36:47.757Z,9.70
2019-03-29T18:39:18.932Z,9.70
2019-03-29T18:41:50.661Z,9.60
2019-03-29T18:44:20.914Z,9.60
2019-03-29T18:46:52.073Z,9.50
2019-03-29T18:49:23.132Z,9.50
2019-03-29T18:51:54.113Z,9.60
2019-03-29T18:54:24.747Z,9.60
2019-03-29T18:56:55.735Z,9.80
2019-03-29T18:59:26.816Z,9.80
2019-03-29T19:01:57.927Z,9.70
2019-03-29T19:04:28.424Z,9.60
2019-03-29T19:06:59.056Z,9.50
2019-03-29T19:09:31.647Z,9.50
2019-03-29T19:12:02.435Z,9.60
2019-03-29T19:14:33.486Z,9.50
2019-03-29T19:17:03.436Z,9.40
2019-03-29T19:19:34.476Z,9.50
2019-03-29T19:22:05.478Z,9.60
2019-03-29T19:24:36.507Z,9.60
2019-03-29T19:27:07.869Z,9.60
2019-03-29T19:29:38.920Z,9.50
2019-03-29T19:32:10.140Z,9.60
2019-03-29T19:34:40.744Z,9.50
2019-03-29T19:37:13.885Z,9.40
2019-03-29T19:39:45.172Z,9.30
2019-03-29T19:42:16.858Z,9.30
2019-03-29T19:44:48.268Z,9.20
2019-03-29T19:47:19.669Z,9.30
2019-03-29T19:49:50.408Z,9.30
2019-03-29T19:52:21.404Z,9.30
2019-03-29T19:54:53.110Z,9.50
2019-03-29T19:57:23.657Z,9.70
2019-03-29T19:59:54.683Z,9.90
2019-03-29T20:02:25.374Z,10.00
2019-03-29T20:04:56.011Z,9.90
2019-03-29T20:07:27.183Z,9.80
2019-03-29T20:09:59.098Z,9.60
2019-03-29T20:12:31.432Z,9.60
2019-03-29T20:15:02.567Z,9.60
2019-03-29T20:17:33.284Z,9.40
2019-03-29T20:20:03.548Z,9.70
2019-03-29T20:22:34.568Z,10.00
2019-03-29T20:25:05.318Z,10.10
2019-03-29T20:27:36.337Z,10.20
2019-03-29T20:30:07.497Z,10.50
2019-03-29T20:32:38.930Z,10.60
2019-03-29T20:35:09.936Z,10.50
2019-03-29T20:37:41.291Z,10.60
2019-03-29T20:40:13.350Z,10.50
2019-03-29T20:42:44.418Z,10.50
2019-03-29T20:45:16.015Z,10.50
2019-03-29T20:47:47.049Z,10.40
2019-03-29T20:50:18.569Z,10.40
2019-03-29T20:52:50.091Z,10.40
2019-03-29T20:55:20.586Z,10.40
2019-03-29T20:57:53.848Z,10.40
